Time;durP1;ratioP1;P1;durP2;ratioP2;P2;SDS_P1;SDS_P2;PMS_P1;PMS_P2;Temp;Humidity;BMP_temperature;BMP_pressure;BME280_temperature;BME280_humidity;BME280_pressure;Samples;Min_cycle;Max_cycle;Signal;HPM_P1;HPM_P2
2022/05/29 00:01:41;;;;;;;17.08;4.50;;;;;;;;;;5019263;28;20159;-52
2022/05/29 00:04:08;;;;;;;23.15;5.60;;;;;;;;;;5021206;28;20120;-55
2022/05/29 00:06:39;;;;;;;18.58;5.15;;;;;;;;;;5022306;28;20030;-53
2022/05/29 00:09:07;;;;;;;19.25;5.53;;;;;;;;;;5021458;28;20083;-52
2022/05/29 00:11:33;;;;;;;26.83;6.18;;;;;;;;;;5021976;28;20028;-55
2022/05/29 00:14:00;;;;;;;17.23;5.43;;;;;;;;;;5022707;28;20046;-56
2022/05/29 00:16:28;;;;;;;15.15;5.10;;;;;;;;;;5021990;28;20099;-53
2022/05/29 00:18:55;;;;;;;16.67;5.28;;;;;;;;;;5021913;28;20037;-52
2022/05/29 00:21:22;;;;;;;19.33;5.40;;;;;;;;;;5021994;28;20056;-54
2022/05/29 00:23:49;;;;;;;24.17;5.55;;;;;;;;;;5024561;28;20034;-50
2022/05/29 00:26:17;;;;;;;20.08;5.22;;;;;;;;;;5020553;28;20029;-53
2022/05/29 00:28:44;;;;;;;16.95;5.47;;;;;;;;;;5024443;28;20105;-54
2022/05/29 00:31:12;;;;;;;19.17;5.70;;;;;;;;;;5025435;28;20036;-53
2022/05/29 00:33:39;;;;;;;16.67;4.60;;;;;;;;;;5023125;28;20156;-57
2022/05/29 00:36:07;;;;;;;14.40;5.10;;;;;;;;;;5021677;28;20041;-56
2022/05/29 00:38:38;;;;;;;17.73;5.43;;;;;;;;;;5020859;28;20083;-54
2022/05/29 00:41:17;;;;;;;17.13;5.13;;;;;;;;;;5021444;28;20026;-51
2022/05/29 00:44:04;;;;;;;15.30;5.15;;;;;;;;;;5022938;28;20037;-53
2022/05/29 00:46:32;;;;;;;13.85;4.70;;;;;;;;;;5019536;28;20088;-54
2022/05/29 00:48:59;;;;;;;22.23;5.60;;;;;;;;;;5019517;28;20056;-56
2022/05/29 00:51:27;;;;;;;15.35;5.32;;;;;;;;;;5021440;28;20383;-52
2022/05/29 00:53:55;;;;;;;18.33;4.93;;;;;;;;;;5020165;28;20095;-49
2022/05/29 00:56:22;;;;;;;17.98;4.82;;;;;;;;;;5023511;28;20083;-50
2022/05/29 00:58:49;;;;;;;17.23;4.75;;;;;;;;;;5020401;28;20038;-48
2022/05/29 01:01:16;;;;;;;17.95;5.28;;;;;;;;;;5021503;28;20556;-54
2022/05/29 01:03:43;;;;;;;20.48;4.93;;;;;;;;;;5022617;28;20438;-50
2022/05/29 01:06:10;;;;;;;22.25;5.18;;;;;;;;;;5021716;28;20030;-50
2022/05/29 01:08:38;;;;;;;16.67;5.45;;;;;;;;;;5021977;28;20025;-47
2022/05/29 01:11:07;;;;;;;24.00;5.35;;;;;;;;;;5032086;28;20084;-50
2022/05/29 01:13:43;;;;;;;18.02;4.90;;;;;;;;;;5032162;28;20060;-49
2022/05/29 01:16:17;;;;;;;16.30;4.82;;;;;;;;;;5031292;28;20037;-48
2022/05/29 01:18:50;;;;;;;22.40;5.25;;;;;;;;;;5032284;28;20132;-55
2022/05/29 01:21:31;;;;;;;23.73;5.22;;;;;;;;;;5031690;28;20517;-49
2022/05/29 01:24:10;;;;;;;15.60;5.07;;;;;;;;;;5031953;28;20140;-52
2022/05/29 01:26:43;;;;;;;18.13;4.65;;;;;;;;;;5032258;28;20057;-49
2022/05/29 01:29:15;;;;;;;15.55;4.65;;;;;;;;;;5028504;28;20536;-51
2022/05/29 01:31:42;;;;;;;14.17;4.70;;;;;;;;;;5019791;28;20037;-54
2022/05/29 01:34:21;;;;;;;18.23;5.85;;;;;;;;;;5021597;28;20279;-52
2022/05/29 01:36:54;;;;;;;24.98;7.78;;;;;;;;;;5019755;28;20473;-51
2022/05/29 01:39:39;;;;;;;26.15;10.10;;;;;;;;;;5019168;28;20030;-51
2022/05/29 01:42:26;;;;;;;35.60;11.18;;;;;;;;;;5021643;28;20041;-50
2022/05/29 01:45:11;;;;;;;43.92;12.52;;;;;;;;;;5004031;28;20045;-48
2022/05/29 01:47:44;;;;;;;44.05;12.93;;;;;;;;;;5030467;28;20109;-53
2022/05/29 01:50:30;;;;;;;54.40;15.38;;;;;;;;;;5031354;28;20514;-50
2022/05/29 01:53:17;;;;;;;47.72;15.50;;;;;;;;;;5031372;28;20025;-52
2022/05/29 01:55:49;;;;;;;50.80;16.20;;;;;;;;;;5023430;28;20046;-54
2022/05/29 01:58:22;;;;;;;49.42;15.95;;;;;;;;;;5020644;28;20022;-50
2022/05/29 02:00:50;;;;;;;42.42;15.18;;;;;;;;;;5016563;28;20025;-51
2022/05/29 02:03:22;;;;;;;50.10;15.95;;;;;;;;;;5020722;28;20462;-53
2022/05/29 02:05:48;;;;;;;;;;;;;;;;;;5011361;28;20033;-51
2022/05/29 02:08:18;;;;;;;45.78;15.27;;;;;;;;;;5010915;28;19913;-53
2022/05/29 02:11:08;;;;;;;51.13;14.88;;;;;;;;;;5011717;28;20591;-48
2022/05/29 02:13:40;;;;;;;40.17;13.60;;;;;;;;;;5003444;28;20053;-51
2022/05/29 02:16:13;;;;;;;41.20;14.73;;;;;;;;;;5011304;28;20038;-50
2022/05/29 02:18:56;;;;;;;36.80;13.38;;;;;;;;;;5011278;28;20033;-49
2022/05/29 02:21:35;;;;;;;41.35;13.27;;;;;;;;;;5014137;28;20030;-50
2022/05/29 02:24:05;;;;;;;45.40;15.00;;;;;;;;;;5010952;28;20045;-56
2022/05/29 02:26:34;;;;;;;50.10;14.13;;;;;;;;;;5012103;28;20476;-54
2022/05/29 02:29:06;;;;;;;41.28;13.48;;;;;;;;;;5019774;28;20168;-50
2022/05/29 02:31:40;;;;;;;37.55;12.98;;;;;;;;;;5021590;28;20062;-54
2022/05/29 02:34:07;;;;;;;47.45;13.57;;;;;;;;;;5018840;28;20959;-55
2022/05/29 02:36:40;;;;;;;51.92;13.32;;;;;;;;;;5018889;28;20446;-55
2022/05/29 02:39:10;;;;;;;36.00;11.93;;;;;;;;;;5018303;28;21342;-54
2022/05/29 02:41:37;;;;;;;40.85;13.98;;;;;;;;;;5019685;28;20683;-53
2022/05/29 02:44:08;;;;;;;34.45;12.05;;;;;;;;;;5019206;28;20022;-51
2022/05/29 02:46:35;;;;;;;37.70;11.40;;;;;;;;;;5018297;28;20040;-53
2022/05/29 02:49:21;;;;;;;36.75;12.90;;;;;;;;;;5014576;28;20033;-50
2022/05/29 02:51:48;;;;;;;33.92;11.25;;;;;;;;;;5010967;28;20057;-53
2022/05/29 02:54:26;;;;;;;36.30;10.88;;;;;;;;;;5010865;28;20033;-54
2022/05/29 02:56:56;;;;;;;35.35;10.45;;;;;;;;;;5010270;28;20046;-50
2022/05/29 02:59:25;;;;;;;27.58;10.00;;;;;;;;;;5010388;28;20108;-50
2022/05/29 03:01:58;;;;;;;41.53;11.25;;;;;;;;;;5010779;28;20487;-53
2022/05/29 03:04:33;;;;;;;33.10;10.38;;;;;;;;;;5011372;28;20030;-55
2022/05/29 03:07:26;;;;;;;29.27;10.15;;;;;;;;;;5010157;28;20041;-62
2022/05/29 03:10:07;;;;;;;29.30;11.13;;;;;;;;;;5001867;28;20117;-54
2022/05/29 03:12:42;;;;;;;32.33;11.07;;;;;;;;;;5011462;28;20484;-51
2022/05/29 03:15:09;;;;;;;28.80;10.23;;;;;;;;;;5039520;28;20048;-52
2022/05/29 03:17:47;;;;;;;30.33;10.45;;;;;;;;;;5027572;28;20113;-52
2022/05/29 03:20:33;;;;;;;24.27;10.13;;;;;;;;;;5011061;28;20068;-49
2022/05/29 03:23:03;;;;;;;27.73;10.30;;;;;;;;;;5023010;28;20041;-52
2022/05/29 03:25:33;;;;;;;24.58;9.55;;;;;;;;;;5027831;28;20557;-51
2022/05/29 03:28:01;;;;;;;25.15;9.90;;;;;;;;;;5030388;28;20113;-52
2022/05/29 03:30:33;;;;;;;23.13;8.95;;;;;;;;;;5030540;28;20040;-53
2022/05/29 03:33:01;;;;;;;26.95;10.20;;;;;;;;;;5030547;28;20029;-52
2022/05/29 03:35:30;;;;;;;27.27;8.50;;;;;;;;;;5031286;28;20052;-50
2022/05/29 03:37:58;;;;;;;27.58;9.75;;;;;;;;;;5030681;28;20083;-53
2022/05/29 03:40:26;;;;;;;29.80;9.32;;;;;;;;;;5034201;28;20506;-51
2022/05/29 03:42:54;;;;;;;25.50;8.13;;;;;;;;;;5033756;28;20395;-51
2022/05/29 03:45:21;;;;;;;23.02;7.90;;;;;;;;;;5033454;28;20426;-55
2022/05/29 03:47:48;;;;;;;33.90;8.95;;;;;;;;;;5034944;28;20038;-50
2022/05/29 03:50:17;;;;;;;23.23;8.40;;;;;;;;;;5035041;28;20029;-51
2022/05/29 03:52:45;;;;;;;21.98;7.97;;;;;;;;;;5034738;28;20480;-52
2022/05/29 03:55:13;;;;;;;19.73;7.38;;;;;;;;;;5034540;28;20060;-53
2022/05/29 03:57:40;;;;;;;20.10;7.53;;;;;;;;;;5034261;28;20030;-49
2022/05/29 04:00:08;;;;;;;20.45;7.43;;;;;;;;;;5035065;28;20025;-49
2022/05/29 04:02:35;;;;;;;24.25;7.57;;;;;;;;;;5034595;28;20021;-51
2022/05/29 04:05:02;;;;;;;17.23;7.55;;;;;;;;;;5034804;28;20567;-52
2022/05/29 04:13:00;;;;;;;19.08;7.13;;;;;;;;;;5034919;28;20088;-52
2022/05/29 04:15:27;;;;;;;21.60;6.88;;;;;;;;;;5034098;28;20525;-51
2022/05/29 04:17:54;;;;;;;22.40;7.50;;;;;;;;;;5033738;28;20080;-52
2022/05/29 04:20:21;;;;;;;21.70;7.07;;;;;;;;;;5034247;28;20022;-50
2022/05/29 04:22:48;;;;;;;27.17;6.90;;;;;;;;;;5034169;28;20044;-51
2022/05/29 04:25:15;;;;;;;20.65;6.85;;;;;;;;;;5034384;28;20056;-50
2022/05/29 04:27:42;;;;;;;25.05;7.32;;;;;;;;;;5033869;28;20104;-51
2022/05/29 04:30:09;;;;;;;19.55;6.78;;;;;;;;;;5034723;28;20483;-52
2022/05/29 04:35:21;;;;;;;18.65;5.85;;;;;;;;;;5034472;28;20106;-51
2022/05/29 04:37:49;;;;;;;19.63;5.90;;;;;;;;;;5033535;28;20030;-50
2022/05/29 04:40:16;;;;;;;18.05;6.40;;;;;;;;;;5034368;28;20065;-51
2022/05/29 04:42:44;;;;;;;17.50;6.50;;;;;;;;;;5033903;28;20029;-49
2022/05/29 04:45:11;;;;;;;22.80;6.30;;;;;;;;;;5034067;28;20037;-48
2022/05/29 04:47:38;;;;;;;17.65;6.82;;;;;;;;;;5034083;28;20495;-52
2022/05/29 04:50:07;;;;;;;21.90;6.57;;;;;;;;;;5032263;28;20096;-50
2022/05/29 04:52:34;;;;;;;21.67;7.13;;;;;;;;;;5032753;28;20399;-50
2022/05/29 04:55:01;;;;;;;13.63;6.05;;;;;;;;;;5034379;28;20076;-49
2022/05/29 04:57:28;;;;;;;14.77;5.63;;;;;;;;;;5033840;28;20091;-52
2022/05/29 04:59:57;;;;;;;15.13;5.75;;;;;;;;;;5033826;28;20557;-51
2022/05/29 05:02:24;;;;;;;16.27;6.13;;;;;;;;;;5033929;28;20041;-48
2022/05/29 05:04:51;;;;;;;19.88;5.60;;;;;;;;;;5033847;28;20386;-51
2022/05/29 05:07:18;;;;;;;14.95;5.95;;;;;;;;;;5033225;28;20041;-48
2022/05/29 05:09:46;;;;;;;14.35;5.60;;;;;;;;;;5034026;28;20480;-52
2022/05/29 05:12:13;;;;;;;15.50;5.50;;;;;;;;;;5033577;28;20100;-53
2022/05/29 05:14:40;;;;;;;19.58;5.90;;;;;;;;;;5033097;28;20048;-51
2022/05/29 05:17:07;;;;;;;17.58;5.20;;;;;;;;;;5033630;28;20091;-49
2022/05/29 05:19:34;;;;;;;12.63;4.88;;;;;;;;;;5033575;28;20034;-51
2022/05/29 05:22:01;;;;;;;16.52;5.53;;;;;;;;;;5033959;28;20078;-52
2022/05/29 05:24:28;;;;;;;12.77;4.65;;;;;;;;;;5032966;28;20537;-49
2022/05/29 05:26:58;;;;;;;13.10;5.07;;;;;;;;;;5016561;28;20026;-50
2022/05/29 05:29:25;;;;;;;12.02;4.82;;;;;;;;;;5013160;28;20034;-50
2022/05/29 05:31:52;;;;;;;14.20;4.97;;;;;;;;;;5013660;28;20029;-48
2022/05/29 05:34:20;;;;;;;17.63;5.93;;;;;;;;;;5028796;28;20040;-49
2022/05/29 05:36:47;;;;;;;11.27;4.78;;;;;;;;;;5032334;28;20052;-52
2022/05/29 05:39:14;;;;;;;12.43;4.93;;;;;;;;;;5032506;28;20021;-52
2022/05/29 05:41:41;;;;;;;12.82;4.88;;;;;;;;;;5033451;28;20025;-48
2022/05/29 05:44:08;;;;;;;14.70;4.82;;;;;;;;;;5032612;28;20052;-50
2022/05/29 05:46:35;;;;;;;12.18;4.40;;;;;;;;;;5033105;28;20037;-50
2022/05/29 05:49:02;;;;;;;12.77;4.60;;;;;;;;;;5032470;28;20029;-49
2022/05/29 05:51:29;;;;;;;11.55;4.72;;;;;;;;;;5032888;28;20116;-51
2022/05/29 05:53:56;;;;;;;12.68;4.43;;;;;;;;;;5032524;28;20387;-50
2022/05/29 05:56:23;;;;;;;11.23;4.50;;;;;;;;;;5032369;28;20605;-49
2022/05/29 05:58:50;;;;;;;15.90;5.05;;;;;;;;;;5033036;28;20029;-51
2022/05/29 06:01:18;;;;;;;10.73;4.47;;;;;;;;;;5033984;28;20487;-50
2022/05/29 06:03:45;;;;;;;13.20;4.25;;;;;;;;;;5033575;28;20100;-52
2022/05/29 06:06:12;;;;;;;15.00;4.57;;;;;;;;;;5032562;28;20030;-52
2022/05/29 06:08:39;;;;;;;13.10;4.00;;;;;;;;;;5032226;28;20025;-52
2022/05/29 06:11:06;;;;;;;12.73;4.30;;;;;;;;;;5032800;28;20025;-50
2022/05/29 06:13:33;;;;;;;13.45;4.40;;;;;;;;;;5032199;28;20041;-50
2022/05/29 06:16:04;;;;;;;13.18;4.35;;;;;;;;;;5032090;28;20033;-52
2022/05/29 06:18:31;;;;;;;16.48;4.50;;;;;;;;;;5032561;28;20091;-50
2022/05/29 06:21:00;;;;;;;9.70;3.90;;;;;;;;;;5032367;28;20052;-50
2022/05/29 06:23:28;;;;;;;11.80;4.22;;;;;;;;;;5031979;28;20041;-51
2022/05/29 06:25:55;;;;;;;12.50;3.22;;;;;;;;;;5030946;28;20682;-53
2022/05/29 06:28:22;;;;;;;15.43;4.00;;;;;;;;;;5032178;28;20024;-47
2022/05/29 06:30:49;;;;;;;13.07;4.15;;;;;;;;;;5031816;28;20056;-52
2022/05/29 06:33:16;;;;;;;6.38;3.25;;;;;;;;;;5031897;28;20041;-49
2022/05/29 06:35:43;;;;;;;10.52;4.05;;;;;;;;;;5031834;28;20483;-51
2022/05/29 06:38:10;;;;;;;10.88;3.63;;;;;;;;;;5032008;28;20438;-50
2022/05/29 06:40:42;;;;;;;12.70;3.70;;;;;;;;;;5031962;28;20022;-54
2022/05/29 06:43:08;;;;;;;;;;;;;;;;;;5031461;28;20095;-54
2022/05/29 06:45:35;;;;;;;6.70;3.15;;;;;;;;;;5031869;28;19909;-51
2022/05/29 06:48:02;;;;;;;8.23;3.40;;;;;;;;;;5031753;28;20026;-50
2022/05/29 06:50:30;;;;;;;7.78;3.33;;;;;;;;;;5032053;28;20450;-53
2022/05/29 06:52:57;;;;;;;10.88;3.53;;;;;;;;;;5031732;28;20443;-49
2022/05/29 06:55:25;;;;;;;7.80;3.42;;;;;;;;;;5031756;28;20029;-50
2022/05/29 06:57:52;;;;;;;7.63;3.17;;;;;;;;;;5032113;28;20099;-49
2022/05/29 07:08:47;;;;;;;6.75;2.80;;;;;;;;;;5031952;28;20510;-52
2022/05/29 07:11:22;;;;;;;8.90;3.15;;;;;;;;;;5032017;28;20022;-50
2022/05/29 07:13:49;;;;;;;6.50;3.03;;;;;;;;;;5030042;28;20393;-52
2022/05/29 07:16:16;;;;;;;7.32;2.90;;;;;;;;;;5035590;28;20116;-51
2022/05/29 07:18:43;;;;;;;5.82;2.78;;;;;;;;;;5035899;28;20022;-53
2022/05/29 07:21:10;;;;;;;8.43;3.20;;;;;;;;;;5035058;28;20034;-49
2022/05/29 07:23:38;;;;;;;7.18;2.85;;;;;;;;;;5035823;28;20017;-51
2022/05/29 07:26:05;;;;;;;5.97;3.00;;;;;;;;;;5034735;28;20079;-53
2022/05/29 07:28:32;;;;;;;6.25;2.45;;;;;;;;;;5035040;28;20537;-53
2022/05/29 07:30:59;;;;;;;8.88;3.15;;;;;;;;;;5035831;28;20365;-52
2022/05/29 07:33:26;;;;;;;6.07;2.40;;;;;;;;;;5035441;28;20102;-50
2022/05/29 07:35:53;;;;;;;6.13;2.50;;;;;;;;;;5035411;28;20388;-50
2022/05/29 07:38:20;;;;;;;7.70;2.85;;;;;;;;;;5035681;28;20041;-49
2022/05/29 07:40:47;;;;;;;4.97;2.63;;;;;;;;;;5035519;28;20388;-50
2022/05/29 07:43:20;;;;;;;7.93;3.17;;;;;;;;;;5034621;28;20152;-49
2022/05/29 07:45:49;;;;;;;8.82;2.58;;;;;;;;;;5035325;28;20131;-50
2022/05/29 07:48:17;;;;;;;7.22;2.40;;;;;;;;;;5035392;28;20026;-54
2022/05/29 07:50:45;;;;;;;5.63;2.42;;;;;;;;;;5034721;28;20033;-50
2022/05/29 07:53:12;;;;;;;5.90;2.53;;;;;;;;;;5035614;28;20041;-48
2022/05/29 07:55:39;;;;;;;6.13;2.45;;;;;;;;;;5034548;28;20187;-51
2022/05/29 07:58:07;;;;;;;5.63;2.40;;;;;;;;;;5035491;28;20033;-50
2022/05/29 08:00:35;;;;;;;4.53;2.30;;;;;;;;;;5034394;28;20369;-52
2022/05/29 08:03:02;;;;;;;4.90;2.30;;;;;;;;;;5035396;28;20018;-53
2022/05/29 08:05:34;;;;;;;5.18;2.25;;;;;;;;;;5034209;28;20037;-51
2022/05/29 08:08:04;;;;;;;3.70;2.10;;;;;;;;;;5035344;28;20788;-50
2022/05/29 08:10:32;;;;;;;5.63;2.25;;;;;;;;;;5035087;28;20079;-48
2022/05/29 08:13:00;;;;;;;5.47;2.20;;;;;;;;;;5034092;28;20507;-53
2022/05/29 08:15:27;;;;;;;4.50;2.13;;;;;;;;;;5035176;28;20124;-51
2022/05/29 08:17:53;;;;;;;4.35;2.13;;;;;;;;;;5034235;28;20095;-49
2022/05/29 08:20:20;;;;;;;4.15;2.25;;;;;;;;;;5034986;28;20030;-50
2022/05/29 08:22:47;;;;;;;3.78;1.98;;;;;;;;;;5034339;28;20032;-51
2022/05/29 08:30:53;;;;;;;5.53;2.42;;;;;;;;;;5034872;28;20569;-50
2022/05/29 08:33:25;;;;;;;6.15;2.33;;;;;;;;;;5034270;28;20108;-49
2022/05/29 08:35:56;;;;;;;6.30;2.08;;;;;;;;;;5034620;28;20426;-50
2022/05/29 08:38:23;;;;;;;5.95;2.20;;;;;;;;;;5032592;28;20091;-50
2022/05/29 08:40:55;;;;;;;3.97;1.92;;;;;;;;;;5034812;28;20034;-51
2022/05/29 08:43:22;;;;;;;6.05;2.00;;;;;;;;;;5034015;28;20033;-49
2022/05/29 08:45:50;;;;;;;6.15;1.85;;;;;;;;;;5033959;28;20073;-51
2022/05/29 08:48:20;;;;;;;7.82;2.20;;;;;;;;;;5032569;28;20471;-49
2022/05/29 08:50:52;;;;;;;4.13;2.10;;;;;;;;;;5034436;28;20095;-51
2022/05/29 08:53:41;;;;;;;4.97;1.88;;;;;;;;;;5033718;28;20021;-48
2022/05/29 08:56:19;;;;;;;5.10;1.85;;;;;;;;;;5034424;28;20088;-48
2022/05/29 08:58:56;;;;;;;6.00;1.60;;;;;;;;;;5033784;28;20049;-48
2022/05/29 09:01:28;;;;;;;4.68;1.55;;;;;;;;;;5033877;28;20017;-49
2022/05/29 09:03:58;;;;;;;6.00;2.05;;;;;;;;;;5034637;28;20075;-48
2022/05/29 09:06:46;;;;;;;2.88;1.65;;;;;;;;;;5033988;28;20033;-49
2022/05/29 09:09:28;;;;;;;3.10;1.65;;;;;;;;;;5034004;28;20431;-52
2022/05/29 09:11:58;;;;;;;3.15;1.80;;;;;;;;;;5033628;28;20030;-53
2022/05/29 09:14:25;;;;;;;3.45;1.60;;;;;;;;;;5033046;28;20045;-50
2022/05/29 09:17:03;;;;;;;5.75;1.90;;;;;;;;;;5033861;28;20036;-50
2022/05/29 09:19:44;;;;;;;4.45;1.58;;;;;;;;;;5033445;28;20021;-48
2022/05/29 09:22:14;;;;;;;3.20;1.65;;;;;;;;;;5033760;28;20049;-48
2022/05/29 09:24:48;;;;;;;2.17;1.10;;;;;;;;;;5032848;28;20029;-48
2022/05/29 09:27:17;;;;;;;3.03;1.50;;;;;;;;;;5033769;28;20041;-53
2022/05/29 09:29:44;;;;;;;4.28;1.60;;;;;;;;;;5032944;28;20030;-52
2022/05/29 09:32:23;;;;;;;2.97;1.50;;;;;;;;;;5033666;28;20112;-50
2022/05/29 09:34:57;;;;;;;2.75;1.38;;;;;;;;;;5032081;28;20087;-51
2022/05/29 09:37:29;;;;;;;3.95;1.77;;;;;;;;;;5032365;28;20510;-50
2022/05/29 09:39:57;;;;;;;2.70;1.42;;;;;;;;;;5033779;28;20026;-49
2022/05/29 09:42:27;;;;;;;3.42;1.75;;;;;;;;;;5032797;28;20041;-48
2022/05/29 09:45:11;;;;;;;2.22;1.20;;;;;;;;;;5033441;28;20083;-50
2022/05/29 09:50:26;;;;;;;5.07;1.90;;;;;;;;;;5033167;28;20064;-49
2022/05/29 09:52:54;;;;;;;2.22;1.52;;;;;;;;;;5033108;28;20029;-52
2022/05/29 09:55:34;;;;;;;3.40;1.58;;;;;;;;;;5032722;28;20038;-47
2022/05/29 09:58:02;;;;;;;2.35;1.33;;;;;;;;;;5032680;28;20033;-48
2022/05/29 10:00:40;;;;;;;3.10;1.88;;;;;;;;;;5033304;28;20109;-51
2022/05/29 10:03:09;;;;;;;4.97;1.58;;;;;;;;;;5032317;28;20041;-51
2022/05/29 10:05:38;;;;;;;5.00;1.38;;;;;;;;;;5031660;28;20036;-50
2022/05/29 10:08:30;;;;;;;4.32;1.52;;;;;;;;;;5032188;28;20116;-48
2022/05/29 10:11:12;;;;;;;3.45;1.38;;;;;;;;;;5032518;28;20096;-53
2022/05/29 10:13:40;;;;;;;2.90;1.33;;;;;;;;;;5032687;28;20050;-49
2022/05/29 10:16:08;;;;;;;4.03;1.15;;;;;;;;;;5032401;28;20047;-48
2022/05/29 10:18:40;;;;;;;2.13;1.20;;;;;;;;;;5032258;28;20025;-51
2022/05/29 10:21:09;;;;;;;4.13;1.20;;;;;;;;;;5032573;28;20033;-49
2022/05/29 10:23:37;;;;;;;2.00;1.25;;;;;;;;;;5032735;28;20021;-48
2022/05/29 10:26:24;;;;;;;2.60;1.35;;;;;;;;;;5032385;28;20029;-53
2022/05/29 10:28:52;;;;;;;2.47;1.20;;;;;;;;;;5032383;28;20089;-49
2022/05/29 10:31:24;;;;;;;3.67;1.20;;;;;;;;;;5032565;28;20027;-50
2022/05/29 10:34:03;;;;;;;2.88;1.40;;;;;;;;;;5031640;28;20026;-50
2022/05/29 10:36:30;;;;;;;2.13;1.25;;;;;;;;;;5032309;28;20507;-51
2022/05/29 10:39:11;;;;;;;1.60;1.10;;;;;;;;;;5032161;28;20495;-55
2022/05/29 10:41:40;;;;;;;2.53;1.42;;;;;;;;;;5032014;28;20505;-51
2022/05/29 10:44:09;;;;;;;1.23;0.93;;;;;;;;;;5032268;28;20105;-50
2022/05/29 10:46:54;;;;;;;4.53;1.60;;;;;;;;;;5032117;28;20021;-51
2022/05/29 10:49:27;;;;;;;2.90;1.20;;;;;;;;;;5031200;28;20025;-50
2022/05/29 10:52:12;;;;;;;2.20;1.10;;;;;;;;;;5031897;28;20550;-49
2022/05/29 10:54:55;;;;;;;3.83;1.35;;;;;;;;;;5032018;28;20400;-54
2022/05/29 10:57:22;;;;;;;1.88;1.20;;;;;;;;;;5031451;28;20040;-49
2022/05/29 10:59:49;;;;;;;2.72;1.20;;;;;;;;;;5031404;28;20030;-50
2022/05/29 11:05:19;;;;;;;2.65;1.20;;;;;;;;;;5031902;28;20087;-52
2022/05/29 11:08:04;;;;;;;2.55;1.20;;;;;;;;;;5031981;28;20025;-52
2022/05/29 11:10:40;;;;;;;3.15;1.30;;;;;;;;;;5031440;28;20028;-53
2022/05/29 11:13:10;;;;;;;2.80;1.13;;;;;;;;;;5030996;28;20053;-51
2022/05/29 11:15:55;;;;;;;3.20;1.48;;;;;;;;;;5031944;28;20087;-53
2022/05/29 11:18:51;;;;;;;2.40;1.40;;;;;;;;;;5031964;28;20060;-48
2022/05/29 11:21:21;;;;;;;2.90;1.10;;;;;;;;;;5012171;28;20286;-51
2022/05/29 11:23:48;;;;;;;2.72;1.15;;;;;;;;;;5030953;28;20030;-52
2022/05/29 11:26:31;;;;;;;2.85;1.10;;;;;;;;;;5031575;28;20045;-50
2022/05/29 11:28:58;;;;;;;2.38;1.00;;;;;;;;;;5031659;28;20030;-50
2022/05/29 11:31:32;;;;;;;1.77;1.05;;;;;;;;;;5032024;28;20040;-51
2022/05/29 11:34:02;;;;;;;2.33;1.15;;;;;;;;;;5029670;28;20037;-48
2022/05/29 11:36:39;;;;;;;4.65;1.38;;;;;;;;;;5031106;28;20029;-49
2022/05/29 11:39:29;;;;;;;1.95;1.20;;;;;;;;;;5028744;28;20077;-51
2022/05/29 11:42:25;;;;;;;1.65;1.17;;;;;;;;;;5012507;28;20124;-51
2022/05/29 11:45:12;;;;;;;2.13;1.17;;;;;;;;;;5022113;28;20376;-49
2022/05/29 11:53:27;;;;;;;2.92;1.55;;;;;;;;;;5031732;28;20045;-51
2022/05/29 11:55:57;;;;;;;2.15;1.52;;;;;;;;;;5030682;28;20400;-50
2022/05/29 11:58:30;;;;;;;2.53;1.45;;;;;;;;;;5031478;28;20029;-50
2022/05/29 12:01:07;;;;;;;3.70;1.73;;;;;;;;;;5033049;28;20088;-52
2022/05/29 12:03:39;;;;;;;2.35;1.33;;;;;;;;;;5034892;28;20510;-49
2022/05/29 12:06:15;;;;;;;2.15;1.40;;;;;;;;;;5034038;28;20030;-48
2022/05/29 12:08:48;;;;;;;2.03;1.33;;;;;;;;;;5035106;28;20109;-53
2022/05/29 12:11:21;;;;;;;2.55;1.38;;;;;;;;;;5034714;28;20021;-51
2022/05/29 12:13:55;;;;;;;3.38;1.35;;;;;;;;;;5034800;28;20041;-48
2022/05/29 12:16:27;;;;;;;2.58;1.20;;;;;;;;;;5034446;28;20383;-54
2022/05/29 12:18:55;;;;;;;2.15;1.42;;;;;;;;;;5034718;28;20502;-50
2022/05/29 12:21:34;;;;;;;2.13;1.38;;;;;;;;;;5034779;28;20108;-48
2022/05/29 12:24:02;;;;;;;2.58;1.30;;;;;;;;;;5034495;28;20116;-49
2022/05/29 12:26:57;;;;;;;2.22;1.30;;;;;;;;;;5034786;28;20068;-47
2022/05/29 12:29:26;;;;;;;2.50;1.42;;;;;;;;;;5019063;28;20514;-51
2022/05/29 12:32:00;;;;;;;2.85;1.58;;;;;;;;;;5034264;28;20537;-50
2022/05/29 12:34:33;;;;;;;4.80;1.65;;;;;;;;;;5034700;28;20056;-50
2022/05/29 12:36:59;;;;;;;;;;;;;;;;;;5034507;28;20060;-50
2022/05/29 12:39:35;;;;;;;2.33;1.70;;;;;;;;;;5034616;28;19951;-53
2022/05/29 12:42:06;;;;;;;1.85;1.30;;;;;;;;;;5034283;28;20031;-50
2022/05/29 12:44:35;;;;;;;1.30;1.20;;;;;;;;;;5034302;28;20415;-52
2022/05/29 12:47:09;;;;;;;1.67;1.13;;;;;;;;;;5033876;28;20491;-52
2022/05/29 12:49:57;;;;;;;1.35;1.02;;;;;;;;;;5034709;28;20064;-47
2022/05/29 12:52:33;;;;;;;2.75;1.40;;;;;;;;;;5033739;28;20028;-49
2022/05/29 12:55:08;;;;;;;2.65;1.55;;;;;;;;;;5033992;28;20083;-47
2022/05/29 12:57:46;;;;;;;3.25;1.00;;;;;;;;;;5032493;28;20455;-52
2022/05/29 13:00:16;;;;;;;3.65;1.20;;;;;;;;;;5034277;28;20039;-50
2022/05/29 13:02:46;;;;;;;3.88;1.30;;;;;;;;;;5022302;28;20025;-49
2022/05/29 13:05:36;;;;;;;4.57;1.30;;;;;;;;;;5015017;28;20036;-51
2022/05/29 13:08:24;;;;;;;4.65;1.20;;;;;;;;;;5023529;28;20504;-50
2022/05/29 13:10:53;;;;;;;2.70;1.40;;;;;;;;;;5024147;28;20026;-48
2022/05/29 13:13:23;;;;;;;2.35;1.17;;;;;;;;;;5028236;28;20046;-47
2022/05/29 13:15:50;;;;;;;5.55;1.10;;;;;;;;;;5021616;28;20172;-50
2022/05/29 13:21:09;;;;;;;2.38;1.40;;;;;;;;;;5032903;28;20037;-51
2022/05/29 13:23:41;;;;;;;7.78;1.20;;;;;;;;;;5032927;28;20029;-51
2022/05/29 13:26:08;;;;;;;7.03;1.50;;;;;;;;;;5030426;28;20167;-52
2022/05/29 13:28:47;;;;;;;6.30;1.40;;;;;;;;;;5028852;28;20037;-51
2022/05/29 13:31:18;;;;;;;4.53;1.20;;;;;;;;;;5032922;28;20037;-49
2022/05/29 13:34:11;;;;;;;3.40;1.10;;;;;;;;;;5032460;28;20029;-51
2022/05/29 13:36:46;;;;;;;5.05;1.70;;;;;;;;;;5030411;28;20149;-51
2022/05/29 13:39:25;;;;;;;4.13;1.50;;;;;;;;;;5033166;28;20506;-49
2022/05/29 13:41:52;;;;;;;3.92;1.30;;;;;;;;;;5032566;28;20053;-52
2022/05/29 13:44:28;;;;;;;8.18;1.45;;;;;;;;;;5032102;28;20034;-52
2022/05/29 13:47:14;;;;;;;5.40;1.52;;;;;;;;;;5032685;28;20025;-55
2022/05/29 13:49:44;;;;;;;6.95;1.67;;;;;;;;;;5032426;28;20041;-52
2022/05/29 13:52:16;;;;;;;10.65;1.88;;;;;;;;;;5031753;28;20041;-51
2022/05/29 13:54:46;;;;;;;7.65;1.48;;;;;;;;;;5031267;28;20044;-50
2022/05/29 14:03:58;;;;;;;9.60;1.90;;;;;;;;;;5026008;28;20038;-49
2022/05/29 14:06:17;;;;;;;15.05;2.00;;;;;;;;;;5021967;28;20067;-50
2022/05/29 14:09:13;;;;;;;12.25;2.20;;;;;;;;;;5032279;28;20095;-59
2022/05/29 14:11:50;;;;;;;8.77;1.88;;;;;;;;;;5031680;28;20368;-59
2022/05/29 14:14:35;;;;;;;5.63;1.77;;;;;;;;;;5031974;28;20048;-59
2022/05/29 14:17:20;;;;;;;12.57;1.63;;;;;;;;;;5031838;28;20380;-59
2022/05/29 14:19:53;;;;;;;7.13;1.73;;;;;;;;;;5032157;28;20053;-59
2022/05/29 14:23:07;;;;;;;8.85;1.45;;;;;;;;;;5032153;28;20021;-59
2022/05/29 14:25:14;;;;;;;6.03;1.70;;;;;;;;;;5026962;28;20041;-59
2022/05/29 14:28:04;;;;;;;6.25;1.73;;;;;;;;;;5031739;28;20475;-59
2022/05/29 14:30:36;;;;;;;10.65;1.63;;;;;;;;;;5031826;28;20108;-59
2022/05/29 14:33:16;;;;;;;5.68;1.50;;;;;;;;;;5031874;28;20037;-59
2022/05/29 14:35:48;;;;;;;3.13;1.42;;;;;;;;;;5032549;28;20038;-59
2022/05/29 14:38:30;;;;;;;6.63;1.30;;;;;;;;;;5032146;28;20542;-59
2022/05/29 14:40:59;;;;;;;6.43;1.30;;;;;;;;;;5032216;28;20087;-59
2022/05/29 14:43:27;;;;;;;4.53;1.30;;;;;;;;;;5031597;28;20034;-60
2022/05/29 14:48:59;;;;;;;5.35;1.75;;;;;;;;;;5003119;28;20514;-59
2022/05/29 14:51:53;;;;;;;4.30;1.30;;;;;;;;;;5032217;28;20033;-58
2022/05/29 14:54:26;;;;;;;6.40;1.40;;;;;;;;;;5028534;28;20041;-59
2022/05/29 14:56:58;;;;;;;4.72;1.40;;;;;;;;;;5032384;28;20104;-59
2022/05/29 14:59:31;;;;;;;5.63;1.50;;;;;;;;;;5030922;28;20655;-60
2022/05/29 15:01:59;;;;;;;6.07;1.38;;;;;;;;;;5031352;28;20035;-59
2022/05/29 15:04:31;;;;;;;4.00;1.30;;;;;;;;;;5030256;28;20037;-59
2022/05/29 15:12:32;;;;;;;6.45;1.20;;;;;;;;;;5031618;28;20044;-59
2022/05/29 15:15:17;;;;;;;3.83;1.38;;;;;;;;;;5030901;28;20067;-59
2022/05/29 15:17:44;;;;;;;3.83;1.23;;;;;;;;;;5031607;28;20108;-59
2022/05/29 15:26:03;;;;;;;3.33;1.10;;;;;;;;;;5031201;28;20096;-60
2022/05/29 15:28:31;;;;;;;4.10;1.55;;;;;;;;;;5031314;28;20018;-59
2022/05/29 15:30:59;;;;;;;4.78;1.05;;;;;;;;;;5031557;28;20519;-58
2022/05/29 15:33:34;;;;;;;3.83;1.20;;;;;;;;;;5031806;28;20463;-59
2022/05/29 15:36:24;;;;;;;6.00;1.10;;;;;;;;;;5033658;28;20044;-59
2022/05/29 15:39:11;;;;;;;9.20;1.50;;;;;;;;;;5025244;28;20038;-59
2022/05/29 15:41:56;;;;;;;5.03;1.10;;;;;;;;;;5035844;28;20071;-60
2022/05/29 15:44:47;;;;;;;8.70;1.30;;;;;;;;;;5033618;28;20432;-60
2022/05/29 15:47:14;;;;;;;2.90;1.10;;;;;;;;;;5035799;28;20045;-59
2022/05/29 15:49:59;;;;;;;4.47;1.40;;;;;;;;;;5035065;28;20018;-60
2022/05/29 15:52:32;;;;;;;3.00;1.02;;;;;;;;;;5035434;28;20391;-59
2022/05/29 15:55:14;;;;;;;4.32;1.23;;;;;;;;;;5035101;28;20152;-59
2022/05/29 15:57:44;;;;;;;4.40;1.20;;;;;;;;;;5034911;28;20033;-59
2022/05/29 16:00:11;;;;;;;2.95;1.05;;;;;;;;;;5033769;28;20028;-60
2022/05/29 16:02:48;;;;;;;3.83;1.20;;;;;;;;;;5035378;28;20095;-60